createdAt,value
2023-04-22T06:21:55.136Z,15.20
2023-04-22T06:26:59.454Z,22.63
2023-04-22T06:32:05.229Z,16.08
2023-04-22T06:37:09.787Z,14.57
2023-04-22T06:42:15.119Z,14.02
2023-04-22T06:47:43.438Z,10.45
2023-04-22T06:52:51.854Z,15.03
2023-04-22T06:57:54.282Z,14.75
2023-04-22T07:02:56.998Z,13.67
2023-04-22T07:08:04.634Z,15.50
2023-04-22T07:13:11.319Z,13.27
2023-04-22T07:18:13.847Z,13.67
2023-04-22T07:23:17.980Z,11.15
2023-04-22T07:28:20.487Z,11.07
2023-04-22T07:33:23.300Z,11.93
2023-04-22T07:38:27.265Z,11.98
2023-04-22T07:43:29.744Z,9.13
2023-04-22T07:48:35.353Z,11.83
2023-04-22T07:53:39.287Z,12.20
2023-04-22T07:58:41.780Z,10.90
2023-04-22T08:03:44.335Z,9.97
2023-04-22T08:08:48.603Z,9.10
2023-04-22T08:13:51.440Z,9.43
2023-04-22T08:18:53.904Z,12.47
2023-04-22T08:23:57.802Z,11.00
2023-04-22T08:29:02.417Z,11.13
2023-04-22T08:34:05.465Z,10.73
2023-04-22T08:39:10.493Z,9.32
2023-04-22T08:44:14.580Z,9.80
2023-04-22T08:49:18.115Z,10.47
2023-04-22T08:54:23.885Z,9.65
2023-04-22T08:59:27.102Z,8.13
2023-04-22T09:04:29.835Z,9.57
2023-04-22T09:09:34.405Z,8.82
2023-04-22T09:14:38.616Z,7.97
2023-04-22T09:19:41.660Z,11.17
2023-04-22T09:24:50.341Z,9.10
2023-04-22T09:29:53.009Z,9.27
2023-04-22T09:34:55.669Z,7.00
2023-04-22T09:40:05.381Z,5.97
2023-04-22T09:45:09.092Z,9.23
2023-04-22T09:50:12.451Z,8.53
2023-04-22T09:55:16.219Z,6.50
2023-04-22T10:00:22.722Z,8.38
2023-04-22T10:05:25.225Z,5.87
2023-04-22T10:10:32.250Z,7.80
2023-04-22T10:15:40.652Z,7.28
2023-04-22T10:20:45.835Z,6.25
2023-04-22T10:25:54.592Z,5.40
2023-04-22T10:30:57.294Z,6.35
2023-04-22T10:36:15.954Z,8.15
2023-04-22T10:41:24.274Z,5.53
2023-04-22T10:47:00.998Z,6.68
2023-04-22T10:52:06.934Z,5.97
2023-04-22T10:57:17.199Z,8.67
2023-04-22T11:02:21.726Z,5.47
2023-04-22T11:07:31.536Z,4.60
2023-04-22T11:12:45.476Z,5.03
2023-04-22T11:17:51.054Z,5.80
2023-04-22T11:22:55.594Z,6.60
2023-04-22T11:28:00.002Z,5.40
2023-04-22T11:33:02.535Z,5.33
2023-04-22T11:38:07.847Z,6.07
2023-04-22T11:43:12.114Z,6.30
2023-04-22T11:48:15.501Z,5.83
2023-04-22T11:53:20.873Z,5.43
2023-04-22T11:58:27.885Z,7.82
2023-04-22T12:03:31.283Z,6.18
2023-04-22T12:08:37.253Z,4.70
2023-04-22T12:13:44.603Z,6.80
2023-04-22T12:18:51.822Z,6.40
2023-04-22T12:23:57.602Z,6.33
2023-04-22T12:29:01.533Z,7.80
2023-04-22T12:34:04.008Z,5.22
2023-04-22T12:39:09.411Z,7.00
2023-04-22T12:44:13.138Z,4.77
2023-04-22T12:49:15.676Z,5.95
2023-04-22T12:54:18.971Z,5.18
2023-04-22T12:59:22.729Z,5.00
2023-04-22T13:04:28.317Z,5.30
2023-04-22T13:09:30.848Z,5.15
2023-04-22T13:14:35.121Z,7.30
2023-04-22T13:19:37.734Z,8.52
2023-04-22T13:24:40.381Z,5.10
2023-04-22T13:29:45.330Z,6.27
2023-04-22T13:34:47.909Z,5.67
2023-04-22T13:39:50.657Z,5.50
2023-04-22T13:44:54.564Z,5.38
2023-04-22T13:49:57.088Z,5.67
2023-04-22T13:54:59.588Z,5.38
2023-04-22T14:00:03.973Z,7.10
2023-04-22T14:05:14.179Z,5.47
2023-04-22T14:10:16.646Z,4.53
2023-04-22T14:15:20.697Z,5.45
2023-04-22T14:20:26.208Z,4.50
2023-04-22T14:25:28.669Z,6.40
2023-04-22T14:30:33.350Z,6.00
2023-04-22T14:35:36.356Z,8.55
2023-04-22T14:40:38.956Z,5.53
2023-04-22T14:45:46.874Z,6.85
2023-04-22T14:50:49.469Z,4.85
2023-04-22T14:55:51.889Z,8.73
2023-04-22T15:00:55.683Z,6.20
2023-04-22T15:06:01.412Z,7.03
2023-04-22T15:11:03.831Z,6.93
2023-04-22T15:16:07.731Z,11.87
2023-04-22T15:21:10.245Z,6.50
2023-04-22T15:26:13.225Z,7.43
2023-04-22T15:31:17.597Z,10.57
2023-04-22T15:36:20.105Z,5.85
2023-04-22T15:41:23.081Z,5.03
2023-04-22T15:46:30.081Z,5.33
2023-04-22T15:51:32.646Z,6.30
2023-04-22T15:56:36.162Z,6.88
2023-04-22T16:01:40.811Z,7.10
2023-04-22T16:06:43.387Z,8.37
2023-04-22T16:11:45.820Z,8.32
2023-04-22T16:16:50.215Z,7.05
2023-04-22T16:21:52.794Z,7.97
2023-04-22T16:26:55.431Z,6.30
2023-04-22T16:31:59.456Z,7.43
2023-04-22T16:37:01.843Z,8.07
2023-04-22T16:42:04.508Z,6.20
2023-04-22T16:47:08.357Z,5.78
2023-04-22T16:52:10.877Z,5.87
2023-04-22T16:57:13.324Z,5.10
2023-04-22T17:02:17.424Z,5.95
2023-04-22T17:07:19.872Z,4.93
2023-04-22T17:12:22.898Z,5.97
2023-04-22T17:17:26.799Z,6.05
2023-04-22T17:22:29.439Z,7.00
2023-04-22T17:27:32.049Z,5.73
2023-04-22T17:32:36.090Z,7.50
2023-04-22T17:37:38.550Z,5.97
2023-04-22T17:42:45.592Z,7.27
2023-04-22T17:47:50.262Z,5.03
2023-04-22T17:52:55.530Z,7.38
2023-04-22T17:57:57.923Z,6.82
2023-04-22T18:03:02.215Z,7.87
2023-04-22T18:08:04.760Z,8.18
2023-04-22T18:13:07.324Z,10.05
2023-04-22T18:18:11.096Z,10.43
2023-04-22T18:23:13.676Z,12.70
2023-04-22T18:28:18.994Z,18.88
2023-04-22T18:33:22.802Z,15.50
2023-04-22T18:38:25.201Z,20.40
2023-04-22T18:43:27.596Z,25.30
2023-04-22T18:48:31.354Z,33.90
2023-04-22T18:53:36.822Z,27.63
2023-04-22T18:58:39.227Z,19.88
2023-04-22T19:03:43.396Z,15.48
2023-04-22T19:08:45.881Z,19.33
2023-04-22T19:13:48.440Z,22.08
2023-04-22T19:18:55.470Z,34.03
2023-04-22T19:23:57.965Z,46.17
2023-04-22T19:29:03.481Z,55.40
2023-04-22T19:34:07.341Z,49.13
2023-04-22T19:39:09.770Z,37.63
2023-04-22T19:44:12.574Z,34.37
2023-04-22T19:49:17.522Z,35.50
2023-04-22T19:54:21.959Z,33.65
2023-04-22T19:59:24.653Z,33.70
2023-04-22T20:04:32.324Z,31.10
2023-04-22T20:09:36.016Z,28.35
2023-04-22T20:14:38.796Z,28.20
2023-04-22T20:19:43.259Z,32.43
2023-04-22T20:24:47.572Z,26.30
2023-04-22T20:29:51.464Z,26.67
2023-04-22T20:34:57.720Z,24.30
2023-04-22T20:40:01.356Z,22.15
2023-04-22T20:45:05.608Z,20.42
2023-04-22T20:50:10.990Z,21.53
2023-04-22T20:55:13.515Z,20.90
2023-04-22T21:00:19.039Z,18.52
2023-04-22T21:05:26.210Z,19.00
2023-04-22T21:10:29.773Z,19.73
2023-04-22T21:15:33.262Z,20.88
2023-04-22T21:20:44.879Z,25.88
2023-04-22T21:25:48.268Z,23.10
2023-04-22T21:30:51.510Z,23.17
2023-04-22T21:35:56.483Z,22.77
2023-04-22T21:41:01.958Z,23.53
2023-04-22T21:46:07.615Z,26.45
2023-04-22T21:51:11.553Z,30.88
2023-04-22T21:56:14.232Z,26.90
2023-04-22T22:01:16.675Z,27.80
2023-04-22T22:06:20.823Z,29.40
2023-04-22T22:11:31.050Z,27.93
2023-04-22T22:16:33.987Z,30.08
2023-04-22T22:21:37.792Z,28.63
2023-04-22T22:26:40.398Z,30.50
2023-04-22T22:31:43.084Z,28.88
2023-04-22T22:36:46.924Z,32.80
2023-04-22T22:41:49.360Z,34.33
2023-04-22T22:46:51.716Z,34.38
2023-04-22T22:51:58.313Z,38.27
2023-04-22T22:57:00.858Z,35.57
2023-04-22T23:02:03.938Z,36.90
2023-04-22T23:07:07.900Z,34.90
2023-04-22T23:12:10.256Z,28.30
2023-04-22T23:17:13.015Z,28.35
2023-04-22T23:22:17.103Z,32.23
2023-04-22T23:27:23.057Z,37.57
2023-04-22T23:32:27.138Z,34.58
2023-04-22T23:37:31.883Z,35.53
2023-04-22T23:42:34.378Z,38.57
2023-04-22T23:47:37.000Z,39.67
2023-04-22T23:52:41.477Z,36.10
2023-04-22T23:57:44.882Z,33.57
